sensor_id;sensor_type;location;lat;lon;timestamp;P1;durP1;ratioP1;P2;durP2;ratioP2
11008;SDS011;5557;51.670;7.788;2022-07-24T00:02:04;7.40;;;4.57;;
11008;SDS011;5557;51.670;7.788;2022-07-24T00:04:31;6.33;;;5.80;;
11008;SDS011;5557;51.670;7.788;2022-07-24T00:07:01;5.83;;;5.37;;
11008;SDS011;5557;51.670;7.788;2022-07-24T00:09:28;9.33;;;5.50;;
11008;SDS011;5557;51.670;7.788;2022-07-24T00:11:57;6.10;;;5.47;;
11008;SDS011;5557;51.670;7.788;2022-07-24T00:14:25;5.57;;;5.00;;
11008;SDS011;5557;51.670;7.788;2022-07-24T00:16:52;6.33;;;5.90;;
11008;SDS011;5557;51.670;7.788;2022-07-24T00:19:19;5.83;;;5.30;;
11008;SDS011;5557;51.670;7.788;2022-07-24T00:21:46;6.30;;;5.77;;
11008;SDS011;5557;51.670;7.788;2022-07-24T00:24:13;10.03;;;6.07;;
11008;SDS011;5557;51.670;7.788;2022-07-24T00:26:40;6.60;;;6.00;;
11008;SDS011;5557;51.670;7.788;2022-07-24T00:29:07;6.10;;;5.50;;
11008;SDS011;5557;51.670;7.788;2022-07-24T00:31:35;5.73;;;5.30;;
11008;SDS011;5557;51.670;7.788;2022-07-24T00:34:03;6.33;;;5.77;;
11008;SDS011;5557;51.670;7.788;2022-07-24T00:36:30;5.83;;;5.53;;
11008;SDS011;5557;51.670;7.788;2022-07-24T00:38:56;6.40;;;5.90;;
11008;SDS011;5557;51.670;7.788;2022-07-24T00:41:23;7.60;;;5.80;;
11008;SDS011;5557;51.670;7.788;2022-07-24T00:44:04;6.70;;;6.20;;
11008;SDS011;5557;51.670;7.788;2022-07-24T00:46:34;9.13;;;5.50;;
11008;SDS011;5557;51.670;7.788;2022-07-24T00:49:04;6.43;;;6.00;;
11008;SDS011;5557;51.670;7.788;2022-07-24T00:51:44;6.13;;;5.50;;
11008;SDS011;5557;51.670;7.788;2022-07-24T00:54:13;6.43;;;5.87;;
11008;SDS011;5557;51.670;7.788;2022-07-24T00:56:43;5.37;;;4.87;;
11008;SDS011;5557;51.670;7.788;2022-07-24T00:59:11;7.07;;;6.47;;
11008;SDS011;5557;51.670;7.788;2022-07-24T01:01:38;6.03;;;5.50;;
11008;SDS011;5557;51.670;7.788;2022-07-24T01:04:05;5.97;;;5.57;;
11008;SDS011;5557;51.670;7.788;2022-07-24T01:06:34;6.50;;;6.00;;
11008;SDS011;5557;51.670;7.788;2022-07-24T01:09:01;6.17;;;5.70;;
11008;SDS011;5557;51.670;7.788;2022-07-24T01:11:29;6.20;;;5.73;;
11008;SDS011;5557;51.670;7.788;2022-07-24T01:13:56;6.57;;;5.30;;
11008;SDS011;5557;51.670;7.788;2022-07-24T01:16:23;5.43;;;4.93;;
11008;SDS011;5557;51.670;7.788;2022-07-24T01:18:50;6.87;;;6.10;;
11008;SDS011;5557;51.670;7.788;2022-07-24T01:21:17;6.00;;;5.60;;
11008;SDS011;5557;51.670;7.788;2022-07-24T01:23:44;6.00;;;5.60;;
11008;SDS011;5557;51.670;7.788;2022-07-24T01:26:11;6.57;;;6.07;;
11008;SDS011;5557;51.670;7.788;2022-07-24T01:28:38;6.87;;;6.37;;
11008;SDS011;5557;51.670;7.788;2022-07-24T01:31:05;10.83;;;6.23;;
11008;SDS011;5557;51.670;7.788;2022-07-24T01:33:32;6.00;;;5.70;;
11008;SDS011;5557;51.670;7.788;2022-07-24T01:35:59;6.87;;;6.33;;
11008;SDS011;5557;51.670;7.788;2022-07-24T01:38:26;14.47;;;6.00;;
11008;SDS011;5557;51.670;7.788;2022-07-24T01:40:53;6.97;;;6.47;;
11008;SDS011;5557;51.670;7.788;2022-07-24T01:43:21;8.17;;;6.50;;
11008;SDS011;5557;51.670;7.788;2022-07-24T01:45:48;11.53;;;7.80;;
11008;SDS011;5557;51.670;7.788;2022-07-24T01:48:15;7.70;;;7.10;;
11008;SDS011;5557;51.670;7.788;2022-07-24T01:50:43;12.73;;;11.17;;
11008;SDS011;5557;51.670;7.788;2022-07-24T01:53:09;15.17;;;12.60;;
11008;SDS011;5557;51.670;7.788;2022-07-24T01:55:36;9.53;;;8.73;;
11008;SDS011;5557;51.670;7.788;2022-07-24T01:58:03;8.23;;;7.47;;
11008;SDS011;5557;51.670;7.788;2022-07-24T02:00:30;9.40;;;8.50;;
11008;SDS011;5557;51.670;7.788;2022-07-24T02:02:59;8.37;;;7.50;;
11008;SDS011;5557;51.670;7.788;2022-07-24T02:05:26;7.77;;;7.00;;
11008;SDS011;5557;51.670;7.788;2022-07-24T02:07:57;7.90;;;7.17;;
11008;SDS011;5557;51.670;7.788;2022-07-24T02:10:25;7.77;;;7.17;;
11008;SDS011;5557;51.670;7.788;2022-07-24T02:12:54;8.37;;;6.70;;
11008;SDS011;5557;51.670;7.788;2022-07-24T02:15:23;8.80;;;7.30;;
11008;SDS011;5557;51.670;7.788;2022-07-24T02:17:52;7.33;;;6.63;;
11008;SDS011;5557;51.670;7.788;2022-07-24T02:20:20;10.83;;;7.40;;
11008;SDS011;5557;51.670;7.788;2022-07-24T02:22:48;8.03;;;7.33;;
11008;SDS011;5557;51.670;7.788;2022-07-24T02:25:15;11.23;;;8.43;;
11008;SDS011;5557;51.670;7.788;2022-07-24T02:27:42;8.13;;;7.33;;
11008;SDS011;5557;51.670;7.788;2022-07-24T02:30:11;11.27;;;7.90;;
11008;SDS011;5557;51.670;7.788;2022-07-24T02:32:39;8.77;;;7.70;;
11008;SDS011;5557;51.670;7.788;2022-07-24T02:35:07;8.07;;;7.27;;
11008;SDS011;5557;51.670;7.788;2022-07-24T02:37:35;7.53;;;7.00;;
11008;SDS011;5557;51.670;7.788;2022-07-24T02:40:08;8.33;;;7.70;;
11008;SDS011;5557;51.670;7.788;2022-07-24T02:42:37;7.70;;;7.00;;
11008;SDS011;5557;51.670;7.788;2022-07-24T02:45:05;7.90;;;7.30;;
11008;SDS011;5557;51.670;7.788;2022-07-24T02:47:33;8.97;;;8.03;;
11008;SDS011;5557;51.670;7.788;2022-07-24T02:50:00;19.23;;;8.60;;
11008;SDS011;5557;51.670;7.788;2022-07-24T02:52:28;10.30;;;8.20;;
11008;SDS011;5557;51.670;7.788;2022-07-24T02:54:55;9.63;;;7.90;;
11008;SDS011;5557;51.670;7.788;2022-07-24T02:57:22;9.20;;;7.93;;
11008;SDS011;5557;51.670;7.788;2022-07-24T02:59:49;10.43;;;8.70;;
11008;SDS011;5557;51.670;7.788;2022-07-24T03:02:18;9.23;;;8.37;;
11008;SDS011;5557;51.670;7.788;2022-07-24T03:04:46;9.47;;;8.73;;
11008;SDS011;5557;51.670;7.788;2022-07-24T03:07:13;13.17;;;11.20;;
11008;SDS011;5557;51.670;7.788;2022-07-24T03:09:40;14.73;;;10.80;;
11008;SDS011;5557;51.670;7.788;2022-07-24T03:12:07;13.23;;;9.87;;
11008;SDS011;5557;51.670;7.788;2022-07-24T03:14:34;10.40;;;9.20;;
11008;SDS011;5557;51.670;7.788;2022-07-24T03:17:04;12.40;;;10.93;;
11008;SDS011;5557;51.670;7.788;2022-07-24T03:19:31;10.77;;;9.80;;
11008;SDS011;5557;51.670;7.788;2022-07-24T03:21:58;12.43;;;10.10;;
11008;SDS011;5557;51.670;7.788;2022-07-24T03:24:25;11.23;;;10.00;;
11008;SDS011;5557;51.670;7.788;2022-07-24T03:26:52;19.03;;;11.50;;
11008;SDS011;5557;51.670;7.788;2022-07-24T03:29:19;11.47;;;10.20;;
11008;SDS011;5557;51.670;7.788;2022-07-24T03:31:46;14.53;;;10.77;;
11008;SDS011;5557;51.670;7.788;2022-07-24T03:34:13;10.73;;;9.73;;
11008;SDS011;5557;51.670;7.788;2022-07-24T03:36:40;14.30;;;10.67;;
11008;SDS011;5557;51.670;7.788;2022-07-24T03:39:07;13.40;;;10.60;;
11008;SDS011;5557;51.670;7.788;2022-07-24T03:41:35;14.80;;;11.30;;
11008;SDS011;5557;51.670;7.788;2022-07-24T03:44:02;14.43;;;11.00;;
11008;SDS011;5557;51.670;7.788;2022-07-24T03:46:29;12.50;;;11.20;;
11008;SDS011;5557;51.670;7.788;2022-07-24T03:48:56;13.43;;;11.27;;
11008;SDS011;5557;51.670;7.788;2022-07-24T03:51:23;13.23;;;9.53;;
11008;SDS011;5557;51.670;7.788;2022-07-24T03:53:52;11.13;;;9.30;;
11008;SDS011;5557;51.670;7.788;2022-07-24T03:56:20;12.83;;;9.77;;
11008;SDS011;5557;51.670;7.788;2022-07-24T03:58:51;11.17;;;10.00;;
11008;SDS011;5557;51.670;7.788;2022-07-24T04:01:18;10.53;;;9.63;;
11008;SDS011;5557;51.670;7.788;2022-07-24T04:03:46;11.00;;;10.03;;
11008;SDS011;5557;51.670;7.788;2022-07-24T04:06:13;10.70;;;9.80;;
11008;SDS011;5557;51.670;7.788;2022-07-24T04:08:40;11.47;;;9.83;;
11008;SDS011;5557;51.670;7.788;2022-07-24T04:11:07;14.60;;;10.70;;
11008;SDS011;5557;51.670;7.788;2022-07-24T04:13:34;11.90;;;10.20;;
11008;SDS011;5557;51.670;7.788;2022-07-24T04:16:08;13.63;;;9.47;;
11008;SDS011;5557;51.670;7.788;2022-07-24T04:18:35;10.63;;;9.53;;
11008;SDS011;5557;51.670;7.788;2022-07-24T04:21:02;10.90;;;8.97;;
11008;SDS011;5557;51.670;7.788;2022-07-24T04:23:29;10.43;;;9.20;;
11008;SDS011;5557;51.670;7.788;2022-07-24T04:25:56;10.67;;;9.57;;
11008;SDS011;5557;51.670;7.788;2022-07-24T04:28:23;9.10;;;8.10;;
11008;SDS011;5557;51.670;7.788;2022-07-24T04:30:50;11.83;;;8.87;;
11008;SDS011;5557;51.670;7.788;2022-07-24T04:33:18;8.10;;;7.37;;
11008;SDS011;5557;51.670;7.788;2022-07-24T04:35:45;10.77;;;8.73;;
11008;SDS011;5557;51.670;7.788;2022-07-24T04:38:12;8.90;;;8.20;;
11008;SDS011;5557;51.670;7.788;2022-07-24T04:40:40;11.27;;;7.60;;
11008;SDS011;5557;51.670;7.788;2022-07-24T04:43:07;8.13;;;7.43;;
11008;SDS011;5557;51.670;7.788;2022-07-24T04:45:37;10.40;;;8.43;;
11008;SDS011;5557;51.670;7.788;2022-07-24T04:48:04;8.07;;;7.37;;
11008;SDS011;5557;51.670;7.788;2022-07-24T04:50:31;9.53;;;8.57;;
11008;SDS011;5557;51.670;7.788;2022-07-24T04:52:59;9.73;;;8.40;;
11008;SDS011;5557;51.670;7.788;2022-07-24T04:55:26;9.80;;;7.40;;
11008;SDS011;5557;51.670;7.788;2022-07-24T04:57:54;11.77;;;8.43;;
11008;SDS011;5557;51.670;7.788;2022-07-24T05:00:21;8.63;;;7.07;;
11008;SDS011;5557;51.670;7.788;2022-07-24T05:02:48;12.73;;;7.50;;
11008;SDS011;5557;51.670;7.788;2022-07-24T05:05:15;12.40;;;7.27;;
11008;SDS011;5557;51.670;7.788;2022-07-24T05:07:42;8.17;;;7.37;;
11008;SDS011;5557;51.670;7.788;2022-07-24T05:10:11;8.83;;;8.00;;
11008;SDS011;5557;51.670;7.788;2022-07-24T05:12:38;8.30;;;7.60;;
11008;SDS011;5557;51.670;7.788;2022-07-24T05:15:06;7.47;;;6.77;;
11008;SDS011;5557;51.670;7.788;2022-07-24T05:17:34;8.10;;;7.30;;
11008;SDS011;5557;51.670;7.788;2022-07-24T05:20:03;9.87;;;8.23;;
11008;SDS011;5557;51.670;7.788;2022-07-24T05:22:30;8.50;;;6.87;;
11008;SDS011;5557;51.670;7.788;2022-07-24T05:24:57;7.37;;;6.87;;
11008;SDS011;5557;51.670;7.788;2022-07-24T05:27:25;7.53;;;6.83;;
11008;SDS011;5557;51.670;7.788;2022-07-24T05:29:55;7.37;;;6.73;;
11008;SDS011;5557;51.670;7.788;2022-07-24T05:32:22;7.03;;;6.43;;
11008;SDS011;5557;51.670;7.788;2022-07-24T05:34:49;7.67;;;6.90;;
11008;SDS011;5557;51.670;7.788;2022-07-24T05:37:16;9.00;;;6.13;;
11008;SDS011;5557;51.670;7.788;2022-07-24T05:39:43;7.67;;;6.70;;
11008;SDS011;5557;51.670;7.788;2022-07-24T05:42:10;6.90;;;5.53;;
11008;SDS011;5557;51.670;7.788;2022-07-24T05:44:37;7.13;;;6.43;;
11008;SDS011;5557;51.670;7.788;2022-07-24T05:47:05;5.80;;;5.30;;
11008;SDS011;5557;51.670;7.788;2022-07-24T05:49:33;6.17;;;5.77;;
11008;SDS011;5557;51.670;7.788;2022-07-24T05:52:00;5.50;;;5.10;;
11008;SDS011;5557;51.670;7.788;2022-07-24T05:54:34;20.43;;;5.33;;
11008;SDS011;5557;51.670;7.788;2022-07-24T05:57:01;7.53;;;5.60;;
11008;SDS011;5557;51.670;7.788;2022-07-24T05:59:28;5.73;;;5.20;;
11008;SDS011;5557;51.670;7.788;2022-07-24T06:01:55;8.10;;;4.53;;
11008;SDS011;5557;51.670;7.788;2022-07-24T06:04:22;5.63;;;4.50;;
11008;SDS011;5557;51.670;7.788;2022-07-24T06:06:49;5.03;;;4.63;;
11008;SDS011;5557;51.670;7.788;2022-07-24T06:09:16;5.53;;;4.63;;
11008;SDS011;5557;51.670;7.788;2022-07-24T06:11:43;4.33;;;3.93;;
11008;SDS011;5557;51.670;7.788;2022-07-24T06:14:10;4.87;;;4.50;;
11008;SDS011;5557;51.670;7.788;2022-07-24T06:16:37;4.13;;;3.93;;
11008;SDS011;5557;51.670;7.788;2022-07-24T06:19:04;4.63;;;4.23;;
11008;SDS011;5557;51.670;7.788;2022-07-24T06:21:31;4.30;;;3.33;;
11008;SDS011;5557;51.670;7.788;2022-07-24T06:23:58;4.23;;;3.93;;
11008;SDS011;5557;51.670;7.788;2022-07-24T06:26:25;4.37;;;3.47;;
11008;SDS011;5557;51.670;7.788;2022-07-24T06:28:52;4.00;;;3.37;;
11008;SDS011;5557;51.670;7.788;2022-07-24T06:31:19;9.53;;;3.30;;
11008;SDS011;5557;51.670;7.788;2022-07-24T06:33:46;2.90;;;2.70;;
11008;SDS011;5557;51.670;7.788;2022-07-24T06:36:13;3.13;;;2.93;;
11008;SDS011;5557;51.670;7.788;2022-07-24T06:38:40;3.27;;;3.17;;
11008;SDS011;5557;51.670;7.788;2022-07-24T06:41:07;2.80;;;2.70;;
11008;SDS011;5557;51.670;7.788;2022-07-24T06:43:34;3.43;;;2.90;;
11008;SDS011;5557;51.670;7.788;2022-07-24T06:46:01;3.37;;;3.07;;
11008;SDS011;5557;51.670;7.788;2022-07-24T06:48:31;3.27;;;2.90;;
11008;SDS011;5557;51.670;7.788;2022-07-24T06:50:58;3.00;;;2.80;;
11008;SDS011;5557;51.670;7.788;2022-07-24T06:53:25;3.17;;;3.07;;
11008;SDS011;5557;51.670;7.788;2022-07-24T06:55:52;6.30;;;2.63;;
11008;SDS011;5557;51.670;7.788;2022-07-24T06:58:23;3.43;;;2.73;;
11008;SDS011;5557;51.670;7.788;2022-07-24T07:00:51;2.67;;;2.57;;
11008;SDS011;5557;51.670;7.788;2022-07-24T07:03:17;3.10;;;3.00;;
11008;SDS011;5557;51.670;7.788;2022-07-24T07:05:45;4.13;;;2.43;;
11008;SDS011;5557;51.670;7.788;2022-07-24T07:08:12;2.30;;;2.10;;
11008;SDS011;5557;51.670;7.788;2022-07-24T07:10:39;2.80;;;2.60;;
11008;SDS011;5557;51.670;7.788;2022-07-24T07:13:06;6.23;;;2.30;;
11008;SDS011;5557;51.670;7.788;2022-07-24T07:15:33;2.87;;;2.77;;
11008;SDS011;5557;51.670;7.788;2022-07-24T07:18:00;2.40;;;2.30;;
11008;SDS011;5557;51.670;7.788;2022-07-24T07:20:27;2.53;;;2.33;;
11008;SDS011;5557;51.670;7.788;2022-07-24T07:22:54;5.28;;;2.58;;
11008;SDS011;5557;51.670;7.788;2022-07-24T07:25:22;2.90;;;2.60;;
11008;SDS011;5557;51.670;7.788;2022-07-24T07:27:49;2.13;;;2.03;;
11008;SDS011;5557;51.670;7.788;2022-07-24T07:30:16;2.17;;;2.08;;
11008;SDS011;5557;51.670;7.788;2022-07-24T07:32:43;2.22;;;1.90;;
11008;SDS011;5557;51.670;7.788;2022-07-24T07:35:11;2.67;;;2.53;;
11008;SDS011;5557;51.670;7.788;2022-07-24T07:37:46;2.08;;;1.98;;
11008;SDS011;5557;51.670;7.788;2022-07-24T07:40:14;2.38;;;2.17;;
11008;SDS011;5557;51.670;7.788;2022-07-24T07:42:41;2.00;;;1.90;;
11008;SDS011;5557;51.670;7.788;2022-07-24T07:45:08;1.80;;;1.65;;
11008;SDS011;5557;51.670;7.788;2022-07-24T07:47:36;3.15;;;2.60;;
11008;SDS011;5557;51.670;7.788;2022-07-24T07:50:04;2.30;;;2.10;;
11008;SDS011;5557;51.670;7.788;2022-07-24T07:52:31;2.38;;;2.22;;
11008;SDS011;5557;51.670;7.788;2022-07-24T07:54:59;1.70;;;1.60;;
11008;SDS011;5557;51.670;7.788;2022-07-24T07:57:26;2.45;;;2.35;;
11008;SDS011;5557;51.670;7.788;2022-07-24T08:00:13;4.20;;;2.00;;
11008;SDS011;5557;51.670;7.788;2022-07-24T08:02:40;1.90;;;1.80;;
11008;SDS011;5557;51.670;7.788;2022-07-24T08:05:07;1.88;;;1.77;;
11008;SDS011;5557;51.670;7.788;2022-07-24T08:07:35;2.60;;;2.03;;
11008;SDS011;5557;51.670;7.788;2022-07-24T08:10:03;2.10;;;2.00;;
11008;SDS011;5557;51.670;7.788;2022-07-24T08:12:36;4.82;;;2.05;;
11008;SDS011;5557;51.670;7.788;2022-07-24T08:15:05;2.67;;;2.33;;
11008;SDS011;5557;51.670;7.788;2022-07-24T08:17:36;1.90;;;1.80;;
11008;SDS011;5557;51.670;7.788;2022-07-24T08:20:03;2.00;;;1.90;;
11008;SDS011;5557;51.670;7.788;2022-07-24T08:22:32;3.50;;;2.00;;
11008;SDS011;5557;51.670;7.788;2022-07-24T08:24:59;2.00;;;1.90;;
11008;SDS011;5557;51.670;7.788;2022-07-24T08:27:26;2.10;;;2.00;;
11008;SDS011;5557;51.670;7.788;2022-07-24T08:29:53;8.52;;;2.08;;
11008;SDS011;5557;51.670;7.788;2022-07-24T08:32:21;2.67;;;2.50;;
11008;SDS011;5557;51.670;7.788;2022-07-24T08:34:48;2.35;;;2.25;;
11008;SDS011;5557;51.670;7.788;2022-07-24T08:37:18;1.98;;;1.85;;
11008;SDS011;5557;51.670;7.788;2022-07-24T08:39:46;2.17;;;1.90;;
11008;SDS011;5557;51.670;7.788;2022-07-24T08:42:13;4.10;;;2.55;;
11008;SDS011;5557;51.670;7.788;2022-07-24T08:44:40;2.33;;;2.22;;
11008;SDS011;5557;51.670;7.788;2022-07-24T08:47:07;3.47;;;2.00;;
11008;SDS011;5557;51.670;7.788;2022-07-24T08:49:37;2.72;;;2.53;;
11008;SDS011;5557;51.670;7.788;2022-07-24T08:52:07;4.82;;;2.13;;
11008;SDS011;5557;51.670;7.788;2022-07-24T08:54:38;2.20;;;2.00;;
11008;SDS011;5557;51.670;7.788;2022-07-24T08:57:05;3.05;;;2.42;;
11008;SDS011;5557;51.670;7.788;2022-07-24T08:59:32;2.03;;;1.92;;
11008;SDS011;5557;51.670;7.788;2022-07-24T09:02:01;2.13;;;2.03;;
11008;SDS011;5557;51.670;7.788;2022-07-24T09:04:32;2.90;;;2.70;;
11008;SDS011;5557;51.670;7.788;2022-07-24T09:07:07;2.17;;;2.08;;
11008;SDS011;5557;51.670;7.788;2022-07-24T09:09:37;2.28;;;2.17;;
11008;SDS011;5557;51.670;7.788;2022-07-24T09:12:08;2.95;;;2.40;;
11008;SDS011;5557;51.670;7.788;2022-07-24T09:14:40;3.22;;;2.55;;
11008;SDS011;5557;51.670;7.788;2022-07-24T09:17:12;2.70;;;2.60;;
11008;SDS011;5557;51.670;7.788;2022-07-24T09:19:55;2.85;;;2.00;;
11008;SDS011;5557;51.670;7.788;2022-07-24T09:22:34;4.28;;;2.72;;
11008;SDS011;5557;51.670;7.788;2022-07-24T09:25:12;2.60;;;2.40;;
11008;SDS011;5557;51.670;7.788;2022-07-24T09:33:37;2.20;;;2.00;;
11008;SDS011;5557;51.670;7.788;2022-07-24T09:36:15;3.78;;;2.05;;
11008;SDS011;5557;51.670;7.788;2022-07-24T09:38:46;5.97;;;3.00;;
11008;SDS011;5557;51.670;7.788;2022-07-24T09:41:20;2.40;;;2.30;;
11008;SDS011;5557;51.670;7.788;2022-07-24T09:47:06;2.15;;;2.05;;
11008;SDS011;5557;51.670;7.788;2022-07-24T09:49:35;2.60;;;2.40;;
11008;SDS011;5557;51.670;7.788;2022-07-24T09:52:07;2.30;;;2.20;;
11008;SDS011;5557;51.670;7.788;2022-07-24T10:00:42;3.05;;;2.85;;
11008;SDS011;5557;51.670;7.788;2022-07-24T10:03:10;2.35;;;2.25;;
11008;SDS011;5557;51.670;7.788;2022-07-24T10:05:42;3.15;;;2.42;;
11008;SDS011;5557;51.670;7.788;2022-07-24T10:08:20;3.25;;;2.60;;
11008;SDS011;5557;51.670;7.788;2022-07-24T10:11:25;2.60;;;2.50;;
11008;SDS011;5557;51.670;7.788;2022-07-24T10:13:52;2.22;;;2.13;;
11008;SDS011;5557;51.670;7.788;2022-07-24T10:16:26;3.00;;;2.80;;
11008;SDS011;5557;51.670;7.788;2022-07-24T10:19:02;8.10;;;2.97;;
11008;SDS011;5557;51.670;7.788;2022-07-24T10:21:35;2.40;;;2.20;;
11008;SDS011;5557;51.670;7.788;2022-07-24T10:26:48;2.60;;;2.50;;
11008;SDS011;5557;51.670;7.788;2022-07-24T10:29:20;2.95;;;2.75;;
11008;SDS011;5557;51.670;7.788;2022-07-24T10:31:49;2.75;;;2.40;;
11008;SDS011;5557;51.670;7.788;2022-07-24T10:37:28;2.63;;;2.50;;
11008;SDS011;5557;51.670;7.788;2022-07-24T10:40:32;2.20;;;2.08;;
11008;SDS011;5557;51.670;7.788;2022-07-24T10:43:22;2.55;;;2.40;;
11008;SDS011;5557;51.670;7.788;2022-07-24T10:46:12;2.78;;;2.58;;
11008;SDS011;5557;51.670;7.788;2022-07-24T10:48:39;3.20;;;3.05;;
11008;SDS011;5557;51.670;7.788;2022-07-24T10:51:14;2.72;;;2.63;;
11008;SDS011;5557;51.670;7.788;2022-07-24T10:53:43;5.22;;;2.90;;
11008;SDS011;5557;51.670;7.788;2022-07-24T10:56:17;3.10;;;2.95;;
11008;SDS011;5557;51.670;7.788;2022-07-24T11:05:25;2.20;;;2.10;;
11008;SDS011;5557;51.670;7.788;2022-07-24T11:08:13;4.30;;;2.53;;
11008;SDS011;5557;51.670;7.788;2022-07-24T11:11:01;2.60;;;2.50;;
11008;SDS011;5557;51.670;7.788;2022-07-24T11:16:18;2.55;;;2.45;;
11008;SDS011;5557;51.670;7.788;2022-07-24T11:20:11;2.80;;;2.70;;
11008;SDS011;5557;51.670;7.788;2022-07-24T11:22:01;3.00;;;2.80;;
11008;SDS011;5557;51.670;7.788;2022-07-24T11:24:29;3.92;;;2.45;;
11008;SDS011;5557;51.670;7.788;2022-07-24T11:27:04;3.80;;;3.45;;
11008;SDS011;5557;51.670;7.788;2022-07-24T11:29:36;2.78;;;2.67;;
11008;SDS011;5557;51.670;7.788;2022-07-24T11:32:05;2.33;;;2.22;;
11008;SDS011;5557;51.670;7.788;2022-07-24T11:34:50;2.80;;;2.70;;
11008;SDS011;5557;51.670;7.788;2022-07-24T11:37:18;2.45;;;2.35;;
11008;SDS011;5557;51.670;7.788;2022-07-24T11:39:45;2.78;;;2.53;;
11008;SDS011;5557;51.670;7.788;2022-07-24T11:42:14;3.67;;;3.00;;
11008;SDS011;5557;51.670;7.788;2022-07-24T11:44:49;3.35;;;2.60;;
11008;SDS011;5557;51.670;7.788;2022-07-24T11:47:20;2.85;;;2.75;;
11008;SDS011;5557;51.670;7.788;2022-07-24T11:49:50;3.03;;;2.83;;
11008;SDS011;5557;51.670;7.788;2022-07-24T11:52:23;3.13;;;2.92;;
11008;SDS011;5557;51.670;7.788;2022-07-24T11:54:59;3.22;;;3.13;;
11008;SDS011;5557;51.670;7.788;2022-07-24T11:57:45;2.55;;;2.40;;
11008;SDS011;5557;51.670;7.788;2022-07-24T12:00:37;2.58;;;2.38;;
11008;SDS011;5557;51.670;7.788;2022-07-24T12:03:07;1.95;;;1.85;;
11008;SDS011;5557;51.670;7.788;2022-07-24T12:05:36;3.28;;;2.35;;
11008;SDS011;5557;51.670;7.788;2022-07-24T12:11:03;3.20;;;3.00;;
11008;SDS011;5557;51.670;7.788;2022-07-24T12:13:31;2.38;;;2.28;;
11008;SDS011;5557;51.670;7.788;2022-07-24T12:15:59;2.30;;;2.20;;
11008;SDS011;5557;51.670;7.788;2022-07-24T12:18:26;2.50;;;2.30;;
11008;SDS011;5557;51.670;7.788;2022-07-24T12:21:01;2.60;;;2.50;;
11008;SDS011;5557;51.670;7.788;2022-07-24T12:23:49;4.60;;;2.45;;
11008;SDS011;5557;51.670;7.788;2022-07-24T12:26:16;2.75;;;2.50;;
11008;SDS011;5557;51.670;7.788;2022-07-24T12:28:43;5.72;;;2.05;;
11008;SDS011;5557;51.670;7.788;2022-07-24T12:31:10;9.07;;;2.03;;
11008;SDS011;5557;51.670;7.788;2022-07-24T12:33:40;2.22;;;2.13;;
11008;SDS011;5557;51.670;7.788;2022-07-24T12:36:20;2.95;;;2.42;;
11008;SDS011;5557;51.670;7.788;2022-07-24T12:38:51;2.20;;;2.10;;
11008;SDS011;5557;51.670;7.788;2022-07-24T12:41:21;2.20;;;2.10;;
11008;SDS011;5557;51.670;7.788;2022-07-24T12:43:50;3.10;;;1.73;;
11008;SDS011;5557;51.670;7.788;2022-07-24T12:46:33;2.28;;;2.17;;
11008;SDS011;5557;51.670;7.788;2022-07-24T12:49:01;2.55;;;2.15;;
11008;SDS011;5557;51.670;7.788;2022-07-24T12:54:25;2.97;;;2.45;;
11008;SDS011;5557;51.670;7.788;2022-07-24T12:56:58;3.25;;;2.45;;
11008;SDS011;5557;51.670;7.788;2022-07-24T12:59:45;2.60;;;2.40;;
11008;SDS011;5557;51.670;7.788;2022-07-24T13:02:17;2.28;;;2.17;;
11008;SDS011;5557;51.670;7.788;2022-07-24T13:04:57;3.58;;;2.08;;
11008;SDS011;5557;51.670;7.788;2022-07-24T13:07:27;2.75;;;2.65;;
11008;SDS011;5557;51.670;7.788;2022-07-24T13:09:55;4.30;;;2.67;;
11008;SDS011;5557;51.670;7.788;2022-07-24T13:12:22;3.95;;;2.55;;
11008;SDS011;5557;51.670;7.788;2022-07-24T13:14:55;2.55;;;2.40;;
11008;SDS011;5557;51.670;7.788;2022-07-24T13:17:40;3.20;;;2.35;;
11008;SDS011;5557;51.670;7.788;2022-07-24T13:20:07;2.35;;;2.25;;
11008;SDS011;5557;51.670;7.788;2022-07-24T13:22:38;2.50;;;2.40;;
11008;SDS011;5557;51.670;7.788;2022-07-24T13:25:06;2.10;;;2.00;;
11008;SDS011;5557;51.670;7.788;2022-07-24T13:27:34;2.13;;;2.03;;
11008;SDS011;5557;51.670;7.788;2022-07-24T13:30:25;2.63;;;2.45;;
11008;SDS011;5557;51.670;7.788;2022-07-24T13:32:52;2.08;;;1.98;;
11008;SDS011;5557;51.670;7.788;2022-07-24T13:35:20;2.50;;;2.40;;
11008;SDS011;5557;51.670;7.788;2022-07-24T13:37:47;5.40;;;1.92;;
11008;SDS011;5557;51.670;7.788;2022-07-24T13:40:23;2.20;;;2.10;;
11008;SDS011;5557;51.670;7.788;2022-07-24T13:42:50;3.10;;;2.10;;
11008;SDS011;5557;51.670;7.788;2022-07-24T13:45:17;3.83;;;2.30;;
11008;SDS011;5557;51.670;7.788;2022-07-24T13:47:44;2.35;;;2.00;;
11008;SDS011;5557;51.670;7.788;2022-07-24T13:50:11;5.05;;;2.20;;
11008;SDS011;5557;51.670;7.788;2022-07-24T13:52:38;2.47;;;2.30;;
11008;SDS011;5557;51.670;7.788;2022-07-24T13:55:06;2.40;;;2.28;;
11008;SDS011;5557;51.670;7.788;2022-07-24T13:57:33;2.60;;;2.47;;
11008;SDS011;5557;51.670;7.788;2022-07-24T14:00:00;2.58;;;2.47;;
11008;SDS011;5557;51.670;7.788;2022-07-24T14:02:27;2.50;;;2.40;;
11008;SDS011;5557;51.670;7.788;2022-07-24T14:04:55;2.70;;;2.50;;
11008;SDS011;5557;51.670;7.788;2022-07-24T14:07:21;2.42;;;2.33;;
11008;SDS011;5557;51.670;7.788;2022-07-24T14:09:51;2.05;;;1.95;;
11008;SDS011;5557;51.670;7.788;2022-07-24T14:12:18;2.17;;;2.08;;
11008;SDS011;5557;51.670;7.788;2022-07-24T14:14:45;2.40;;;2.20;;
11008;SDS011;5557;51.670;7.788;2022-07-24T14:17:12;2.35;;;2.22;;
11008;SDS011;5557;51.670;7.788;2022-07-24T14:19:39;2.15;;;2.05;;
11008;SDS011;5557;51.670;7.788;2022-07-24T14:22:06;3.10;;;3.00;;
11008;SDS011;5557;51.670;7.788;2022-07-24T14:24:33;3.47;;;3.28;;
11008;SDS011;5557;51.670;7.788;2022-07-24T14:27:04;2.28;;;2.17;;
11008;SDS011;5557;51.670;7.788;2022-07-24T14:29:31;2.58;;;2.47;;
11008;SDS011;5557;51.670;7.788;2022-07-24T14:31:58;3.65;;;3.45;;
11008;SDS011;5557;51.670;7.788;2022-07-24T14:34:26;2.90;;;2.70;;
11008;SDS011;5557;51.670;7.788;2022-07-24T14:36:53;9.35;;;4.30;;
11008;SDS011;5557;51.670;7.788;2022-07-24T14:39:20;2.90;;;2.80;;
11008;SDS011;5557;51.670;7.788;2022-07-24T14:41:47;3.00;;;2.80;;
11008;SDS011;5557;51.670;7.788;2022-07-24T14:44:14;2.72;;;2.63;;
11008;SDS011;5557;51.670;7.788;2022-07-24T14:46:44;3.30;;;3.00;;
11008;SDS011;5557;51.670;7.788;2022-07-24T14:49:11;3.63;;;3.42;;
11008;SDS011;5557;51.670;7.788;2022-07-24T14:51:38;3.10;;;2.90;;
11008;SDS011;5557;51.670;7.788;2022-07-24T14:54:05;3.90;;;3.72;;
11008;SDS011;5557;51.670;7.788;2022-07-24T14:56:34;3.40;;;3.30;;
11008;SDS011;5557;51.670;7.788;2022-07-24T14:59:02;3.78;;;3.47;;
11008;SDS011;5557;51.670;7.788;2022-07-24T15:01:30;5.40;;;3.47;;
11008;SDS011;5557;51.670;7.788;2022-07-24T15:04:04;3.13;;;2.93;;
11008;SDS011;5557;51.670;7.788;2022-07-24T15:06:32;3.07;;;2.97;;
11008;SDS011;5557;51.670;7.788;2022-07-24T15:08:58;5.23;;;3.07;;
11008;SDS011;5557;51.670;7.788;2022-07-24T15:11:26;3.43;;;3.10;;
11008;SDS011;5557;51.670;7.788;2022-07-24T15:13:53;3.80;;;3.60;;
11008;SDS011;5557;51.670;7.788;2022-07-24T15:16:20;3.70;;;3.50;;
11008;SDS011;5557;51.670;7.788;2022-07-24T15:18:47;3.53;;;3.33;;
11008;SDS011;5557;51.670;7.788;2022-07-24T15:21:14;3.30;;;3.13;;
11008;SDS011;5557;51.670;7.788;2022-07-24T15:23:42;3.33;;;3.23;;
11008;SDS011;5557;51.670;7.788;2022-07-24T15:26:09;3.93;;;3.53;;
11008;SDS011;5557;51.670;7.788;2022-07-24T15:28:39;3.23;;;3.13;;
11008;SDS011;5557;51.670;7.788;2022-07-24T15:31:06;3.33;;;3.13;;
11008;SDS011;5557;51.670;7.788;2022-07-24T15:33:35;3.47;;;3.17;;
11008;SDS011;5557;51.670;7.788;2022-07-24T15:36:03;2.93;;;2.83;;
11008;SDS011;5557;51.670;7.788;2022-07-24T15:38:30;3.43;;;3.33;;
11008;SDS011;5557;51.670;7.788;2022-07-24T15:40:57;3.13;;;3.03;;
11008;SDS011;5557;51.670;7.788;2022-07-24T15:43:27;3.90;;;3.63;;
11008;SDS011;5557;51.670;7.788;2022-07-24T15:45:56;3.70;;;3.03;;
11008;SDS011;5557;51.670;7.788;2022-07-24T15:48:26;3.57;;;3.37;;